Time;durP1;ratioP1;P1;durP2;ratioP2;P2;SDS_P1;SDS_P2;PMS_P1;PMS_P2;Temp;Humidity;BMP_temperature;BMP_pressure;BME280_temperature;BME280_humidity;BME280_pressure;Samples;Min_cycle;Max_cycle;Signal;HPM_P1;HPM_P2
2021/07/15 00:00:38;;;;;;;17.95;12.63;;;24.20;89.50;;;;;;1651544;85;21041;-78
2021/07/15 00:03:12;;;;;;;19.05;12.25;;;24.10;88.70;;;;;;1651639;85;21054;-78
2021/07/15 00:05:40;;;;;;;19.50;12.88;;;24.10;89.00;;;;;;1637014;86;21626;-78
2021/07/15 00:08:11;;;;;;;18.55;13.08;;;24.10;90.00;;;;;;1651771;85;21150;-78
2021/07/15 00:10:47;;;;;;;18.40;12.23;;;24.00;89.90;;;;;;1651416;85;21658;-78
2021/07/15 00:13:15;;;;;;;16.30;12.47;;;24.00;90.20;;;;;;1651614;85;21056;-78
2021/07/15 00:15:51;;;;;;;19.05;12.98;;;24.00;90.10;;;;;;1645872;85;21029;-77
2021/07/15 00:18:28;;;;;;;17.90;13.18;;;23.90;90.30;;;;;;1643951;86;21072;-77
2021/07/15 00:20:59;;;;;;;18.15;13.70;;;23.80;90.60;;;;;;1646339;85;21586;-77
2021/07/15 00:23:28;;;;;;;21.12;13.30;;;23.70;91.20;;;;;;1651715;85;21085;-77
2021/07/15 00:25:56;;;;;;;18.37;13.25;;;23.70;91.60;;;;;;1651524;85;21042;-77
2021/07/15 00:28:25;;;;;;;19.92;13.68;;;23.60;92.00;;;;;;1651082;85;21084;-77
2021/07/15 00:30:52;;;;;;;21.20;13.45;;;23.60;92.30;;;;;;1651699;86;21117;-78
2021/07/15 00:33:21;;;;;;;19.07;14.38;;;23.60;92.50;;;;;;1651705;85;21512;-77
2021/07/15 00:35:48;;;;;;;18.77;14.05;;;23.50;92.90;;;;;;1651114;85;21080;-77
2021/07/15 00:38:19;;;;;;;19.25;13.30;;;23.50;93.20;;;;;;1651373;85;21392;-77
2021/07/15 00:40:46;;;;;;;16.30;12.98;;;23.50;93.00;;;;;;1650776;85;21102;-77
2021/07/15 00:43:13;;;;;;;17.05;12.18;;;23.50;92.70;;;;;;1651667;85;21560;-77
2021/07/15 00:45:41;;;;;;;17.42;12.05;;;23.60;92.50;;;;;;1651129;85;21008;-77
2021/07/15 00:48:09;;;;;;;15.83;12.45;;;23.50;92.50;;;;;;1638266;85;21640;-77
2021/07/15 00:50:38;;;;;;;17.37;12.25;;;23.50;92.50;;;;;;1651281;85;21073;-77
2021/07/15 00:53:09;;;;;;;18.30;11.93;;;23.40;92.70;;;;;;1649452;85;21041;-77
2021/07/15 00:55:41;;;;;;;17.77;13.15;;;23.40;92.90;;;;;;1649934;87;21129;-77
2021/07/15 00:58:13;;;;;;;21.55;12.75;;;23.40;93.20;;;;;;1649457;85;21063;-78
2021/07/15 01:00:48;;;;;;;17.50;12.88;;;23.40;93.40;;;;;;1649713;85;21099;-77
2021/07/15 01:03:21;;;;;;;18.87;13.38;;;23.40;93.40;;;;;;1649982;85;21011;-77
2021/07/15 01:05:56;;;;;;;17.20;12.60;;;23.40;93.60;;;;;;1649713;86;21648;-77
2021/07/15 01:08:25;;;;;;;19.15;14.00;;;23.30;93.60;;;;;;1649661;85;21065;-77
2021/07/15 01:11:05;;;;;;;18.30;14.78;;;23.30;93.80;;;;;;1649904;85;21018;-78
2021/07/15 01:13:53;;;;;;;18.67;14.33;;;23.30;93.80;;;;;;1648083;85;21037;-78
2021/07/15 01:16:55;;;;;;;19.37;13.90;;;23.30;93.80;;;;;;1639347;85;21623;-78
2021/07/15 01:20:12;;;;;;;20.30;14.43;;;23.20;94.00;;;;;;1648933;85;21576;-78
2021/07/15 01:23:01;;;;;;;20.25;15.35;;;23.20;94.30;;;;;;1649819;86;21044;-77
2021/07/15 01:26:29;;;;;;;20.65;14.45;;;23.10;95.00;;;;;;1649448;86;21060;-77
2021/07/15 01:33:25;;;;;;;19.92;15.08;;;23.00;95.10;;;;;;1594608;87;21575;-77
2021/07/15 01:36:02;;;;;;;20.68;14.20;;;23.00;95.10;;;;;;1590210;88;21088;-78
2021/07/15 01:38:48;;;;;;;16.87;14.53;;;22.90;95.30;;;;;;1593418;88;21159;-78
2021/07/15 01:41:26;;;;;;;20.70;14.53;;;22.90;95.10;;;;;;1649389;87;21610;-78
2021/07/15 01:44:08;;;;;;;24.32;13.28;;;22.90;95.50;;;;;;1649659;85;21124;-78
2021/07/15 01:46:37;;;;;;;19.52;13.22;;;22.80;95.60;;;;;;1650136;86;21047;-78
2021/07/15 01:49:06;;;;;;;17.82;13.65;;;22.80;95.70;;;;;;1628252;87;21096;-78
2021/07/15 01:51:35;;;;;;;16.95;12.88;;;22.70;96.20;;;;;;1649785;86;21168;-77
2021/07/15 01:54:06;;;;;;;19.15;12.68;;;22.70;95.80;;;;;;1649850;85;21128;-78
2021/07/15 01:56:38;;;;;;;19.62;12.95;;;22.70;95.80;;;;;;1649711;85;21085;-78
2021/07/15 01:59:11;;;;;;;25.55;13.83;;;22.70;96.30;;;;;;1649759;86;21068;-78
2021/07/15 02:01:40;;;;;;;17.57;13.13;;;22.70;96.40;;;;;;1649898;85;21059;-78
2021/07/15 02:25:09;;;;;;;19.73;14.38;;;22.60;96.20;;;;;;1644728;85;21061;-77
2021/07/15 02:27:41;;;;;;;18.42;13.65;;;22.60;96.90;;;;;;1644430;86;21671;-76
2021/07/15 02:30:15;;;;;;;19.95;14.85;;;22.50;96.80;;;;;;1649771;85;21241;-77
2021/07/15 02:33:00;;;;;;;23.83;15.63;;;22.40;96.90;;;;;;1649989;86;21034;-77
2021/07/15 02:35:37;;;;;;;20.25;15.30;;;22.40;97.00;;;;;;1648514;85;21077;-77
2021/07/15 02:38:10;;;;;;;20.70;15.48;;;22.30;97.20;;;;;;1649587;86;21077;-76
2021/07/15 02:40:37;;;;;;;20.00;14.83;;;22.30;97.80;;;;;;1649477;86;21612;-77
2021/07/15 02:43:05;;;;;;;17.77;13.43;;;22.20;98.10;;;;;;1649771;85;21105;-76
2021/07/15 02:45:32;;;;;;;19.48;13.32;;;22.20;98.50;;;;;;1649815;87;21120;-76
2021/07/15 02:48:00;;;;;;;21.48;13.35;;;22.20;98.40;;;;;;1649619;85;21085;-76
2021/07/15 02:50:29;;;;;;;19.95;12.98;;;22.20;98.90;;;;;;1649735;86;21057;-77
2021/07/15 02:53:00;;;;;;;18.73;13.72;;;22.20;99.10;;;;;;1649617;85;21050;-77
2021/07/15 02:55:28;;;;;;;20.15;12.50;;;22.30;98.70;;;;;;1649427;86;21005;-77
2021/07/15 02:58:09;;;;;;;15.55;12.73;;;22.30;98.30;;;;;;1628476;87;21036;-77
2021/07/15 03:01:02;;;;;;;19.12;13.10;;;22.30;98.30;;;;;;1650035;86;21574;-76
2021/07/15 03:04:06;;;;;;;20.35;14.40;;;22.30;98.00;;;;;;1649734;85;21123;-77
2021/07/15 03:06:41;;;;;;;17.48;13.75;;;22.30;98.50;;;;;;1645042;87;21108;-76
2021/07/15 03:09:18;;;;;;;25.25;14.90;;;22.30;98.50;;;;;;1649781;86;21512;-76
2021/07/15 03:12:00;;;;;;;20.92;14.15;;;22.30;98.50;;;;;;1649364;85;21049;-77
2021/07/15 03:14:34;;;;;;;21.65;14.35;;;22.40;97.90;;;;;;1649667;86;21556;-77
2021/07/15 03:17:07;;;;;;;18.10;14.75;;;22.30;98.10;;;;;;1649397;87;21017;-76
2021/07/15 03:19:40;;;;;;;23.22;14.45;;;22.30;98.40;;;;;;1649241;85;21553;-76
2021/07/15 03:22:12;;;;;;;19.10;14.58;;;22.30;98.60;;;;;;1650016;85;21093;-76
2021/07/15 03:24:57;;;;;;;22.27;15.53;;;22.30;98.50;;;;;;1649647;86;21077;-76
2021/07/15 03:27:29;;;;;;;20.80;14.65;;;22.20;98.30;;;;;;1650061;86;21077;-77
2021/07/15 03:30:01;;;;;;;23.52;14.28;;;22.20;98.40;;;;;;1649756;85;21065;-77
2021/07/15 03:32:30;;;;;;;21.33;14.65;;;22.10;98.60;;;;;;1650173;86;21572;-77
2021/07/15 03:34:59;;;;;;;20.57;15.28;;;22.10;98.50;;;;;;1649713;85;21018;-77
2021/07/15 03:37:27;;;;;;;19.48;14.13;;;22.10;98.40;;;;;;1649947;86;21595;-76
2021/07/15 03:39:56;;;;;;;20.27;13.70;;;22.10;98.80;;;;;;1644630;85;21064;-77
2021/07/15 03:42:25;;;;;;;23.70;13.53;;;22.10;99.20;;;;;;1642382;86;21567;-78
2021/07/15 03:44:54;;;;;;;19.85;13.50;;;22.20;99.40;;;;;;1621560;87;21103;-78
2021/07/15 03:47:24;;;;;;;18.60;13.58;;;22.30;99.30;;;;;;1642506;86;21144;-77
2021/07/15 03:49:53;;;;;;;17.32;13.25;;;22.30;99.60;;;;;;1642502;86;21001;-77
2021/07/15 03:52:22;;;;;;;18.77;13.80;;;22.30;99.40;;;;;;1628269;86;21583;-77
2021/07/15 03:54:51;;;;;;;17.87;13.50;;;22.40;99.10;;;;;;1614073;87;21091;-76
2021/07/15 03:57:20;;;;;;;18.57;13.90;;;22.40;98.70;;;;;;1614474;87;21587;-76
2021/07/15 03:59:51;;;;;;;19.95;14.70;;;22.50;98.50;;;;;;1614544;87;21562;-76
2021/07/15 04:02:26;;;;;;;24.75;13.80;;;22.50;98.00;;;;;;1605436;88;21081;-76
2021/07/15 04:04:57;;;;;;;22.85;14.10;;;22.50;97.60;;;;;;1622039;87;21062;-77
2021/07/15 04:07:33;;;;;;;19.85;14.18;;;22.50;97.30;;;;;;1621887;87;21550;-77
2021/07/15 04:10:03;;;;;;;22.85;14.20;;;22.50;97.30;;;;;;1622174;87;21635;-76
2021/07/15 04:12:34;;;;;;;21.10;15.13;;;22.50;97.50;;;;;;1622049;87;21028;-77
2021/07/15 04:15:21;;;;;;;27.30;15.00;;;22.50;97.60;;;;;;1621921;88;21052;-77
2021/07/15 04:18:02;;;;;;;22.42;15.50;;;22.60;97.80;;;;;;1622121;87;21571;-76
2021/07/15 04:20:31;;;;;;;23.45;15.72;;;22.60;98.30;;;;;;1620892;87;21117;-76
2021/07/15 04:23:02;;;;;;;23.45;15.83;;;22.60;98.90;;;;;;1621724;87;21088;-75
2021/07/15 04:25:30;;;;;;;22.52;15.18;;;22.60;98.90;;;;;;1621775;87;21131;-75
2021/07/15 04:28:02;;;;;;;25.40;17.35;;;22.70;98.40;;;;;;1622090;87;21040;-76
2021/07/15 04:30:30;;;;;;;22.50;15.65;;;22.70;98.20;;;;;;1622026;87;21033;-76
2021/07/15 04:33:06;;;;;;;23.10;17.00;;;22.70;98.20;;;;;;1614195;87;21053;-74
2021/07/15 04:35:36;;;;;;;21.68;15.38;;;22.80;98.00;;;;;;1628999;87;21633;-76
2021/07/15 04:38:06;;;;;;;39.42;15.75;;;22.80;98.70;;;;;;1621963;87;21077;-75
2021/07/15 04:40:35;;;;;;;27.42;14.47;;;22.90;98.80;;;;;;1621883;87;21062;-76
2021/07/15 04:43:08;;;;;;;20.32;14.45;;;22.90;97.40;;;;;;1621885;87;21037;-79
2021/07/15 04:45:44;;;;;;;25.97;14.70;;;23.00;97.40;;;;;;1595763;88;21093;-83
2021/07/15 04:48:16;;;;;;;26.93;16.45;;;23.10;97.50;;;;;;1623295;87;21004;-78
2021/07/15 04:50:43;;;;;;;34.43;14.85;;;23.20;97.40;;;;;;1595932;88;21058;-77
2021/07/15 04:53:19;;;;;;;33.08;13.90;;;23.30;96.70;;;;;;1601662;87;21148;-77
2021/07/15 04:55:48;;;;;;;40.73;19.77;;;23.40;96.30;;;;;;1603634;88;21085;-79
2021/07/15 04:58:16;;;;;;;35.80;14.55;;;23.50;97.00;;;;;;1618516;88;21028;-82
2021/07/15 05:00:43;;;;;;;28.10;14.85;;;23.50;96.40;;;;;;1627323;86;21043;-76
2021/07/15 05:03:33;;;;;;;28.70;14.20;;;23.60;97.10;;;;;;1629375;86;21025;-79
2021/07/15 05:06:02;;;;;;;25.70;13.62;;;23.60;96.70;;;;;;1611567;87;21686;-77
2021/07/15 05:08:31;;;;;;;24.70;13.22;;;23.70;96.80;;;;;;1629407;88;21612;-81
2021/07/15 05:11:00;;;;;;;23.65;13.15;;;23.70;95.50;;;;;;1629507;88;21517;-78
2021/07/15 05:13:27;;;;;;;25.52;13.10;;;23.80;95.10;;;;;;1629518;86;21014;-80
2021/07/15 05:15:55;;;;;;;18.67;13.55;;;23.80;94.80;;;;;;1629547;86;20961;-78
2021/07/15 05:18:23;;;;;;;19.70;12.65;;;23.80;94.80;;;;;;1629446;86;21075;-76
2021/07/15 05:20:50;;;;;;;40.43;27.80;;;23.90;95.00;;;;;;1629476;86;21012;-77
2021/07/15 05:23:18;;;;;;;22.87;12.93;;;23.90;97.10;;;;;;1629358;86;21093;-81
2021/07/15 05:25:46;;;;;;;21.77;14.80;;;23.90;95.90;;;;;;1629047;86;21020;-82
2021/07/15 05:28:13;;;;;;;18.80;12.82;;;24.00;95.60;;;;;;1629587;86;21516;-78
2021/07/15 05:30:41;;;;;;;19.90;12.13;;;24.00;96.30;;;;;;1629604;87;21000;-78
2021/07/15 05:33:08;;;;;;;15.63;11.20;;;24.10;95.90;;;;;;1629545;87;21469;-78
2021/07/15 05:35:35;;;;;;;18.55;11.30;;;24.10;95.40;;;;;;1629370;86;21036;-77
2021/07/15 05:38:08;;;;;;;25.77;12.20;;;24.20;94.50;;;;;;1629587;87;21095;-84
2021/07/15 05:40:35;;;;;;;15.78;11.30;;;24.30;94.60;;;;;;1629491;86;21012;-84
2021/07/15 05:43:05;;;;;;;22.07;12.10;;;24.40;94.10;;;;;;1629835;88;21040;-79
2021/07/15 05:45:34;;;;;;;22.50;11.15;;;24.40;94.10;;;;;;1629311;86;21697;-80
2021/07/15 05:48:04;;;;;;;22.05;12.35;;;24.50;94.10;;;;;;1628694;86;21099;-77
2021/07/15 05:50:33;;;;;;;24.45;11.30;;;24.50;92.70;;;;;;1628587;86;21054;-85
2021/07/15 05:53:01;;;;;;;17.42;11.48;;;24.60;92.80;;;;;;1637382;87;21091;-75
2021/07/15 05:55:28;;;;;;;17.92;10.70;;;24.70;92.50;;;;;;1650336;86;21096;-77
2021/07/15 05:57:55;;;;;;;18.95;10.85;;;24.80;91.80;;;;;;1650956;85;21143;-78
